createdAt,value
2019-06-07T00:01:13.791Z,99443.33
2019-06-07T00:03:47.843Z,99445.94
2019-06-07T00:06:25.259Z,99455.09
2019-06-07T00:08:57.563Z,99449.14
2019-06-07T00:11:30.846Z,99447.13
2019-06-07T00:14:05.286Z,99451.83
2019-06-07T00:16:39.273Z,99442.81
2019-06-07T00:19:15.706Z,99447.05
2019-06-07T00:24:23.640Z,99454.23
2019-06-07T00:26:58.826Z,99457.27
2019-06-07T00:29:32.608Z,99463.47
2019-06-07T00:32:05.705Z,99458.74
2019-06-07T00:34:39.530Z,99461.06
2019-06-07T00:37:14.227Z,99458.68
2019-06-07T00:40:12.675Z,99455.16
2019-06-07T00:42:24.639Z,99460.16
2019-06-07T00:44:58.654Z,99457.73
2019-06-07T00:47:32.675Z,99465.41
2019-06-07T00:50:06.328Z,99461.27
2019-06-07T00:53:13.980Z,99456.56
2019-06-07T00:55:19.590Z,99455.75
2019-06-07T00:57:53.027Z,99455.23
2019-06-07T01:00:26.570Z,99457.19
2019-06-07T01:03:00.575Z,99458.88
2019-06-07T01:05:33.770Z,99465.70
2019-06-07T01:08:07.903Z,99474.77
2019-06-07T01:10:52.969Z,99462.71
2019-06-07T01:13:19.461Z,99467.34
2019-06-07T01:15:53.435Z,99463.69
2019-06-07T01:18:39.055Z,99470.02
2019-06-07T01:21:02.901Z,99464.36
2019-06-07T01:26:12.337Z,99454.70
2019-06-07T01:28:46.414Z,99452.35
2019-06-07T01:31:21.160Z,99451.38
2019-06-07T01:33:55.135Z,99453.08
2019-06-07T01:36:31.031Z,99464.88
2019-06-07T01:39:06.836Z,99464.31
2019-06-07T01:41:40.623Z,99480.36
2019-06-07T01:44:14.597Z,99478.42
2019-06-07T01:46:48.525Z,99481.22
2019-06-07T01:49:26.179Z,99479.89
2019-06-07T01:51:58.182Z,99480.91
2019-06-07T01:57:06.292Z,99480.73
2019-06-07T01:59:40.091Z,99474.66
2019-06-07T02:02:14.021Z,99477.92
2019-06-07T02:04:48.358Z,99480.27
2019-06-07T02:07:26.457Z,99481.92
2019-06-07T02:09:58.054Z,99486.30
2019-06-07T02:12:40.213Z,99485.25
2019-06-07T02:15:09.326Z,99475.78
2019-06-07T02:17:43.425Z,99469.34
2019-06-07T02:20:16.908Z,99468.98
2019-06-07T02:22:50.891Z,99473.97
2019-06-07T02:25:48.410Z,99470.36
2019-06-07T02:28:25.812Z,99479.84
2019-06-07T02:30:44.024Z,99483.00
2019-06-07T02:33:10.805Z,99478.14
2019-06-07T02:35:44.616Z,99480.09
2019-06-07T02:38:18.491Z,99479.97
2019-06-07T02:40:52.307Z,99486.16
2019-06-07T02:43:28.228Z,99481.54
2019-06-07T02:46:24.541Z,99476.44
2019-06-07T02:48:40.106Z,99481.22
2019-06-07T02:51:13.107Z,99474.38
2019-06-07T02:53:46.996Z,99473.05
2019-06-07T02:56:42.083Z,99473.41
2019-06-07T02:58:56.637Z,99472.31
2019-06-07T03:01:35.911Z,99479.59
2019-06-07T03:04:09.737Z,99475.83
2019-06-07T03:06:44.264Z,99481.73
2019-06-07T03:09:20.062Z,99475.78
2019-06-07T03:11:56.399Z,99473.22
2019-06-07T03:14:33.898Z,99473.20
2019-06-07T03:17:22.492Z,99477.69
2019-06-07T03:19:57.915Z,99485.47
2019-06-07T03:22:37.967Z,99486.45
2019-06-07T03:25:09.284Z,99491.18
2019-06-07T03:27:49.551Z,99484.45
2019-06-07T03:32:54.511Z,99475.00
2019-06-07T03:35:31.322Z,99474.47
2019-06-07T03:38:03.951Z,99468.61
2019-06-07T03:40:40.012Z,99473.52
2019-06-07T03:43:13.393Z,99476.72
2019-06-07T03:45:47.234Z,99478.95
2019-06-07T03:48:21.124Z,99482.77
2019-06-07T03:51:04.317Z,99494.36
2019-06-07T03:53:31.136Z,99493.41
2019-06-07T03:56:06.371Z,99505.81
2019-06-07T03:58:49.042Z,99498.70
2019-06-07T04:01:15.946Z,99497.02
2019-06-07T04:03:51.651Z,99505.73
2019-06-07T04:06:25.476Z,99501.86
2019-06-07T04:08:59.419Z,99504.41
2019-06-07T04:11:35.184Z,99515.95
2019-06-07T04:14:08.862Z,99521.23
2019-06-07T04:16:44.753Z,99515.11
2019-06-07T04:19:18.287Z,99529.22
2019-06-07T04:21:52.169Z,99531.55
2019-06-07T04:24:26.024Z,99533.98
2019-06-07T04:26:59.834Z,99517.30
2019-06-07T04:29:47.834Z,99510.88
2019-06-07T04:32:09.460Z,99520.52
2019-06-07T04:34:43.341Z,99523.59
2019-06-07T04:37:18.031Z,99526.44
2019-06-07T04:39:52.424Z,99535.72
2019-06-07T04:42:30.022Z,99536.77
2019-06-07T04:45:05.398Z,99538.57
2019-06-07T04:47:42.413Z,99536.83
2019-06-07T04:50:16.329Z,99540.08
2019-06-07T04:52:50.076Z,99547.02
2019-06-07T04:55:23.954Z,99549.69
2019-06-07T04:57:57.506Z,99553.88
2019-06-07T05:00:56.485Z,99563.45
2019-06-07T05:03:11.508Z,99569.57
2019-06-07T05:05:44.689Z,99580.03
2019-06-07T05:08:27.991Z,99570.62
2019-06-07T05:10:54.213Z,99570.12
2019-06-07T05:13:27.323Z,99566.28
2019-06-07T05:16:01.620Z,99566.87
2019-06-07T05:18:36.329Z,99574.33
2019-06-07T05:21:11.062Z,99570.08
2019-06-07T05:24:07.625Z,99572.06
2019-06-07T05:26:20.640Z,99563.00
2019-06-07T05:28:54.496Z,99552.50
2019-06-07T05:31:27.776Z,99553.36
2019-06-07T05:34:01.761Z,99550.72
2019-06-07T05:36:36.706Z,99551.59
2019-06-07T05:39:10.596Z,99561.85
2019-06-07T05:41:44.420Z,99567.93
2019-06-07T05:44:18.708Z,99559.41
2019-06-07T05:46:52.687Z,99552.48
2019-06-07T05:49:25.811Z,99554.13
2019-06-07T05:51:59.841Z,99562.55
2019-06-07T05:54:35.099Z,99570.92
2019-06-07T05:57:09.423Z,99570.55
2019-06-07T05:59:45.037Z,99569.45
2019-06-07T06:02:24.955Z,99564.34
2019-06-07T06:04:53.720Z,99567.31
2019-06-07T06:07:27.727Z,99583.52
2019-06-07T06:10:01.633Z,99583.52
2019-06-07T06:12:40.841Z,99583.25
2019-06-07T06:15:11.505Z,99591.23
2019-06-07T06:17:49.035Z,99585.77
2019-06-07T06:20:21.318Z,99594.47
2019-06-07T06:22:55.348Z,99590.08
2019-06-07T06:25:32.336Z,99601.83
2019-06-07T06:28:11.487Z,99604.43
2019-06-07T06:30:40.975Z,99607.62
2019-06-07T06:33:27.414Z,99606.77
2019-06-07T06:35:51.033Z,99599.58
2019-06-07T06:38:25.537Z,99605.72
2019-06-07T06:41:15.454Z,99609.93
2019-06-07T06:43:35.196Z,99616.12
2019-06-07T06:46:09.008Z,99619.53
2019-06-07T06:48:48.268Z,99622.69
2019-06-07T06:51:18.718Z,99628.06
2019-06-07T06:53:52.593Z,99626.94
2019-06-07T06:56:26.738Z,99627.37
2019-06-07T06:59:34.177Z,99631.48
2019-06-07T07:01:35.520Z,99631.73
2019-06-07T07:04:12.837Z,99637.24
2019-06-07T07:06:45.565Z,99635.90
2019-06-07T07:09:19.579Z,99633.35
2019-06-07T07:12:10.188Z,99632.33
2019-06-07T07:14:29.194Z,99643.42
2019-06-07T07:17:03.113Z,99640.03
2019-06-07T07:19:36.459Z,99643.42
2019-06-07T07:22:10.428Z,99632.61
2019-06-07T07:24:44.513Z,99633.95
2019-06-07T07:27:18.874Z,99642.13
2019-06-07T07:30:29.260Z,99643.18
2019-06-07T07:32:28.380Z,99645.94
2019-06-07T07:35:02.362Z,99653.39
2019-06-07T07:37:35.447Z,99661.88
2019-06-07T07:40:55.379Z,99666.68
2019-06-07T07:42:46.905Z,99665.79
2019-06-07T07:45:20.886Z,99671.83
2019-06-07T07:48:08.311Z,99667.25
2019-06-07T07:50:28.927Z,99669.38
2019-06-07T07:53:03.101Z,99675.46
2019-06-07T07:55:37.254Z,99677.00
2019-06-07T07:58:11.204Z,99671.45
2019-06-07T08:01:00.380Z,99666.01
2019-06-07T08:03:20.131Z,99657.52
2019-06-07T08:05:58.373Z,99659.27
2019-06-07T08:08:29.767Z,99657.06
2019-06-07T08:11:03.889Z,99656.63
2019-06-07T08:13:37.753Z,99650.95
2019-06-07T08:16:16.140Z,99646.22
2019-06-07T08:18:51.040Z,99647.61
2019-06-07T08:21:26.648Z,99644.20
2019-06-07T08:24:03.606Z,99653.83
2019-06-07T08:26:34.328Z,99657.53
2019-06-07T08:29:08.208Z,99662.09
2019-06-07T08:31:42.355Z,99672.86
2019-06-07T08:34:16.485Z,99681.20
2019-06-07T08:36:52.255Z,99687.15
2019-06-07T08:39:26.099Z,99689.30
2019-06-07T08:42:14.877Z,99690.33
2019-06-07T08:44:35.781Z,99689.41
2019-06-07T08:47:19.762Z,99693.31
2019-06-07T08:49:45.639Z,99695.86
2019-06-07T08:52:19.613Z,99693.41
2019-06-07T08:54:54.867Z,99680.82
2019-06-07T08:57:29.171Z,99686.83
2019-06-07T09:00:16.209Z,99695.50
2019-06-07T09:02:39.497Z,99701.28
2019-06-07T09:05:14.518Z,99703.87
2019-06-07T09:07:48.395Z,99704.80
2019-06-07T09:10:22.402Z,99707.86
2019-06-07T09:13:03.086Z,99700.70
2019-06-07T09:15:31.883Z,99702.73
2019-06-07T09:20:49.594Z,99697.60
2019-06-07T09:23:23.489Z,99694.98
2019-06-07T09:26:12.886Z,99695.44
2019-06-07T09:28:37.036Z,99696.25
2019-06-07T09:31:12.751Z,99697.08
2019-06-07T09:33:46.953Z,99694.86
2019-06-07T09:36:21.216Z,99698.13
2019-06-07T09:38:58.724Z,99701.03
2019-06-07T09:41:46.723Z,99701.72
2019-06-07T09:44:21.413Z,99698.72
2019-06-07T09:46:42.861Z,99703.70
2019-06-07T09:49:30.585Z,99697.55
2019-06-07T09:51:52.861Z,99700.59
2019-06-07T09:55:03.358Z,99699.95
2019-06-07T09:57:05.326Z,99701.75
2019-06-07T09:59:38.028Z,99699.38
2019-06-07T10:02:13.575Z,99697.27
2019-06-07T10:04:47.526Z,99690.39
2019-06-07T10:07:31.155Z,99691.73
2019-06-07T10:10:12.363Z,99698.05
2019-06-07T10:12:32.888Z,99696.99
2019-06-07T10:15:09.043Z,99694.52
2019-06-07T10:17:43.014Z,99692.84
2019-06-07T10:20:16.976Z,99697.42
2019-06-07T10:22:51.304Z,99698.83
2019-06-07T10:25:25.329Z,99700.58
2019-06-07T10:27:59.998Z,99704.72
2019-06-07T10:30:34.211Z,99698.92
2019-06-07T10:33:08.563Z,99700.28
2019-06-07T10:35:42.528Z,99698.81
2019-06-07T10:38:16.485Z,99688.25
2019-06-07T10:40:50.529Z,99683.57
2019-06-07T10:43:24.527Z,99683.08
2019-06-07T10:45:58.547Z,99687.03
2019-06-07T10:48:32.366Z,99689.56
2019-06-07T10:51:06.269Z,99695.92
2019-06-07T10:53:40.075Z,99696.22
2019-06-07T10:56:14.026Z,99689.32
2019-06-07T10:58:47.999Z,99687.67
2019-06-07T11:01:22.079Z,99682.61
2019-06-07T11:03:57.186Z,99683.88
2019-06-07T11:06:31.431Z,99690.36
2019-06-07T11:09:08.000Z,99670.77
2019-06-07T11:11:41.894Z,99701.63
2019-06-07T11:14:15.806Z,99701.63
2019-06-07T11:16:49.738Z,99701.37
2019-06-07T11:19:23.732Z,99691.83
2019-06-07T11:21:57.572Z,99701.58
2019-06-07T11:24:30.654Z,99707.88
2019-06-07T11:27:06.707Z,99701.17
2019-06-07T11:29:40.386Z,99700.78
2019-06-07T11:32:14.619Z,99705.13
2019-06-07T11:34:47.864Z,99707.80
2019-06-07T11:37:21.987Z,99708.66
2019-06-07T11:39:57.421Z,99706.48
2019-06-07T11:42:31.261Z,99705.22
2019-06-07T11:45:07.929Z,99702.00
2019-06-07T11:47:42.013Z,99705.55
2019-06-07T11:50:16.083Z,99699.34
2019-06-07T11:52:49.970Z,99691.02
2019-06-07T11:55:23.033Z,99688.41
2019-06-07T11:57:56.928Z,99684.52
2019-06-07T12:00:33.879Z,99682.41
2019-06-07T12:03:05.644Z,99678.02
2019-06-07T12:05:39.595Z,99675.70
2019-06-07T12:08:13.925Z,99680.31
2019-06-07T12:10:48.036Z,99675.48
2019-06-07T12:13:21.207Z,99679.20
2019-06-07T12:15:55.166Z,99690.36
2019-06-07T12:18:30.482Z,99705.52
2019-06-07T12:21:05.886Z,99714.96
2019-06-07T12:23:40.015Z,99731.66
2019-06-07T12:26:14.531Z,99727.02
2019-06-07T12:28:48.825Z,99718.94
2019-06-07T12:31:22.650Z,99708.44
2019-06-07T12:33:56.672Z,99707.38
2019-06-07T12:36:30.562Z,99706.17
2019-06-07T12:39:06.034Z,99717.09
2019-06-07T12:41:40.134Z,99726.36
2019-06-07T12:44:14.550Z,99724.81
2019-06-07T12:46:48.537Z,99730.91
2019-06-07T12:49:23.597Z,99719.73
2019-06-07T12:51:57.464Z,99716.00
2019-06-07T12:54:31.442Z,99710.54
2019-06-07T12:57:05.584Z,99717.31
2019-06-07T12:59:39.487Z,99716.86
2019-06-07T13:02:14.122Z,99721.67
2019-06-07T13:04:48.358Z,99717.00
2019-06-07T13:07:22.904Z,99719.20
2019-06-07T13:09:58.026Z,99725.33
2019-06-07T13:12:32.123Z,99717.69
2019-06-07T13:15:07.337Z,99720.50
2019-06-07T13:17:41.238Z,99728.75
2019-06-07T13:20:16.128Z,99726.98
2019-06-07T13:22:50.102Z,99728.67
2019-06-07T13:25:41.193Z,99722.38
2019-06-07T13:28:00.016Z,99717.81
2019-06-07T13:30:36.303Z,99714.95
2019-06-07T13:33:08.730Z,99711.92
2019-06-07T13:35:41.780Z,99709.17
2019-06-07T13:38:29.066Z,99714.11
2019-06-07T13:41:03.181Z,99715.39
2019-06-07T13:43:37.089Z,99719.94
2019-06-07T13:46:13.082Z,99713.59
2019-06-07T13:48:46.510Z,99720.17
2019-06-07T13:51:22.737Z,99713.44
2019-06-07T13:53:57.069Z,99706.62
2019-06-07T13:56:31.031Z,99713.99
2019-06-07T13:59:04.366Z,99711.36
2019-06-07T14:01:38.438Z,99709.03
2019-06-07T14:04:12.586Z,99710.22
2019-06-07T14:06:46.762Z,99717.15
2019-06-07T14:09:21.173Z,99718.81
2019-06-07T14:11:55.137Z,99722.86
2019-06-07T14:14:29.173Z,99726.28
2019-06-07T14:17:08.493Z,99724.58
2019-06-07T14:19:42.536Z,99725.59
2019-06-07T14:22:16.732Z,99718.18
2019-06-07T14:24:51.166Z,99718.55
2019-06-07T14:27:25.520Z,99717.38
2019-06-07T14:30:00.695Z,99710.61
2019-06-07T14:32:34.876Z,99696.41
2019-06-07T14:35:09.168Z,99689.77
2019-06-07T14:37:43.270Z,99698.90
2019-06-07T14:40:17.717Z,99691.44
2019-06-07T14:42:51.686Z,99699.53
2019-06-07T14:45:25.530Z,99684.70
2019-06-07T14:47:59.552Z,99696.14
2019-06-07T14:50:32.714Z,99695.45
2019-06-07T14:53:06.800Z,99693.77
2019-06-07T14:55:40.929Z,99692.82
2019-06-07T14:58:14.943Z,99696.48
2019-06-07T15:00:49.083Z,99704.03
2019-06-07T15:03:23.226Z,99711.13
2019-06-07T15:05:58.487Z,99715.83
2019-06-07T15:08:33.035Z,99723.38
2019-06-07T15:11:07.326Z,99715.64
2019-06-07T15:13:41.424Z,99716.14
2019-06-07T15:16:15.670Z,99718.59
2019-06-07T15:18:49.661Z,99718.84
2019-06-07T15:21:23.032Z,99722.45
2019-06-07T15:23:57.012Z,99718.76
2019-06-07T15:26:30.787Z,99723.45
2019-06-07T15:29:04.876Z,99734.70
2019-06-07T15:31:40.539Z,99739.25
2019-06-07T15:34:14.706Z,99747.58
2019-06-07T15:36:48.758Z,99750.17
2019-06-07T15:39:22.166Z,99741.84
2019-06-07T15:41:56.284Z,99734.98
2019-06-07T15:44:31.141Z,99745.67
2019-06-07T15:47:05.322Z,99744.86
2019-06-07T15:49:40.346Z,99742.72
2019-06-07T15:52:14.634Z,99738.47
2019-06-07T15:54:49.265Z,99737.89
2019-06-07T15:57:24.544Z,99744.36
2019-06-07T16:00:00.094Z,99746.67
2019-06-07T16:02:35.644Z,99747.11
2019-06-07T16:05:10.133Z,99737.47
2019-06-07T16:07:44.584Z,99738.93
2019-06-07T16:10:19.137Z,99728.66
2019-06-07T16:13:00.157Z,99725.08
2019-06-07T16:15:30.564Z,99717.84
2019-06-07T16:18:06.139Z,99719.34
2019-06-07T16:20:41.471Z,99719.83
2019-06-07T16:23:15.767Z,99706.92
2019-06-07T16:25:49.859Z,99712.70
2019-06-07T16:28:23.886Z,99722.83
2019-06-07T16:30:57.134Z,99714.90
2019-06-07T16:33:31.134Z,99712.05
2019-06-07T16:36:04.367Z,99710.20
2019-06-07T16:38:38.470Z,99711.85
2019-06-07T16:41:17.409Z,99713.16
2019-06-07T16:43:52.654Z,99719.52
2019-06-07T16:46:26.694Z,99727.57
2019-06-07T16:49:00.529Z,99727.91
2019-06-07T16:51:34.490Z,99732.47
2019-06-07T16:54:08.512Z,99735.85
2019-06-07T16:56:47.582Z,99735.54
2019-06-07T16:59:18.138Z,99739.53
2019-06-07T17:01:52.593Z,99740.59
2019-06-07T17:04:26.518Z,99740.47
2019-06-07T17:06:59.756Z,99735.63
2019-06-07T17:09:33.788Z,99739.96
2019-06-07T17:12:09.456Z,99739.77
2019-06-07T17:14:44.561Z,99749.23
2019-06-07T17:17:18.550Z,99750.95
2019-06-07T17:19:52.471Z,99750.56
2019-06-07T17:22:25.668Z,99752.54
2019-06-07T17:24:59.523Z,99750.72
2019-06-07T17:27:33.656Z,99748.87
2019-06-07T17:30:10.080Z,99750.37
2019-06-07T17:32:56.316Z,99746.80
2019-06-07T17:35:19.869Z,99746.36
2019-06-07T17:37:53.833Z,99748.91
2019-06-07T17:40:27.713Z,99744.66
2019-06-07T17:43:01.578Z,99748.20
2019-06-07T17:45:35.392Z,99743.19
2019-06-07T17:48:09.296Z,99739.08
2019-06-07T17:50:43.462Z,99740.06
2019-06-07T17:53:17.725Z,99735.00
2019-06-07T17:55:50.762Z,99735.91
2019-06-07T17:58:24.567Z,99743.55
2019-06-07T18:00:58.411Z,99755.36
2019-06-07T18:03:32.185Z,99750.30
2019-06-07T18:06:06.143Z,99749.89
2019-06-07T18:08:40.426Z,99759.02
2019-06-07T18:11:14.195Z,99758.77
2019-06-07T18:13:48.361Z,99757.41
2019-06-07T18:16:23.758Z,99753.48
2019-06-07T18:18:57.681Z,99753.81
2019-06-07T18:21:31.526Z,99750.83
2019-06-07T18:24:05.681Z,99759.78
2019-06-07T18:26:39.573Z,99762.04
2019-06-07T18:29:13.478Z,99771.84
2019-06-07T18:31:48.622Z,99768.98
2019-06-07T18:34:22.566Z,99771.22
2019-06-07T18:36:56.559Z,99777.30
2019-06-07T18:39:29.720Z,99769.64
2019-06-07T18:42:03.740Z,99773.90
2019-06-07T18:44:36.842Z,99780.26
2019-06-07T18:47:10.679Z,99777.37
2019-06-07T18:49:44.743Z,99782.74
2019-06-07T18:52:19.462Z,99785.41
2019-06-07T18:54:53.061Z,99781.55
2019-06-07T18:57:27.225Z,99775.25
2019-06-07T19:00:05.540Z,99775.26
2019-06-07T19:02:40.131Z,99776.94
2019-06-07T19:05:14.818Z,99775.35
2019-06-07T19:07:48.754Z,99780.20
2019-06-07T19:10:23.600Z,99772.56
2019-06-07T19:13:00.286Z,99780.58
2019-06-07T19:15:35.060Z,99786.63
2019-06-07T19:18:09.205Z,99788.20
2019-06-07T19:20:42.388Z,99783.45
2019-06-07T19:23:16.888Z,99793.38
2019-06-07T19:25:50.662Z,99792.12
2019-06-07T19:28:24.914Z,99790.27
2019-06-07T19:30:59.230Z,99788.27
2019-06-07T19:33:48.244Z,99786.52
2019-06-07T19:36:09.290Z,99793.78
2019-06-07T19:38:44.266Z,99789.36
2019-06-07T19:41:20.098Z,99792.17
2019-06-07T19:43:54.174Z,99786.84
2019-06-07T19:46:27.385Z,99782.03
2019-06-07T19:49:03.006Z,99782.52
2019-06-07T19:51:37.402Z,99780.28
2019-06-07T19:54:11.328Z,99786.30
2019-06-07T19:56:45.389Z,99785.77
2019-06-07T19:59:19.578Z,99782.25
2019-06-07T20:01:53.838Z,99788.07
2019-06-07T20:04:28.189Z,99781.88
2019-06-07T20:07:03.898Z,99775.48
2019-06-07T20:09:38.226Z,99782.58
2019-06-07T20:12:12.137Z,99787.43
2019-06-07T20:14:46.007Z,99781.57
2019-06-07T20:17:20.306Z,99783.02
2019-06-07T20:19:54.239Z,99788.88
2019-06-07T20:22:28.345Z,99791.22
2019-06-07T20:25:03.186Z,99791.22
2019-06-07T20:27:37.436Z,99800.23
2019-06-07T20:30:13.084Z,99800.83
2019-06-07T20:32:46.934Z,99808.28
2019-06-07T20:35:20.890Z,99811.06
2019-06-07T20:37:56.763Z,99811.18
2019-06-07T20:40:30.709Z,99814.10
2019-06-07T20:43:05.690Z,99810.47
2019-06-07T20:45:39.835Z,99805.36
2019-06-07T20:48:14.034Z,99802.21
2019-06-07T20:50:48.209Z,99792.50
2019-06-07T20:53:22.591Z,99797.50
2019-06-07T20:55:56.631Z,99790.75
2019-06-07T20:58:30.003Z,99791.31
2019-06-07T21:01:05.470Z,99794.58
2019-06-07T21:03:39.573Z,99795.17
2019-06-07T21:06:12.766Z,99795.64
2019-06-07T21:08:46.981Z,99801.67
2019-06-07T21:11:21.073Z,99789.52
2019-06-07T21:13:54.277Z,99795.32
2019-06-07T21:16:28.158Z,99796.34
2019-06-07T21:19:02.164Z,99797.94
2019-06-07T21:21:36.270Z,99791.17
2019-06-07T21:24:10.891Z,99798.70
2019-06-07T21:26:44.936Z,99790.84
2019-06-07T21:29:18.727Z,99789.89
2019-06-07T21:31:52.844Z,99783.37
2019-06-07T21:34:25.994Z,99781.19
2019-06-07T21:36:59.773Z,99792.60
2019-06-07T21:39:33.605Z,99805.36
2019-06-07T21:42:08.151Z,99800.61
2019-06-07T21:44:42.155Z,99797.83
2019-06-07T21:47:16.365Z,99801.13
2019-06-07T21:49:50.759Z,99805.73
2019-06-07T21:52:24.987Z,99805.36
2019-06-07T21:54:59.002Z,99807.17
2019-06-07T21:57:32.206Z,99799.87
2019-06-07T22:00:11.431Z,99796.34
2019-06-07T22:02:46.117Z,99802.97
2019-06-07T22:05:20.278Z,99803.22
2019-06-07T22:07:53.569Z,99804.39
2019-06-07T22:10:27.560Z,99799.17
2019-06-07T22:13:00.573Z,99791.17
2019-06-07T22:15:37.432Z,99789.25
2019-06-07T22:18:10.832Z,99797.98
2019-06-07T22:20:44.756Z,99793.84
2019-06-07T22:23:18.623Z,99793.95
2019-06-07T22:25:52.496Z,99790.69
2019-06-07T22:28:26.328Z,99778.30
2019-06-07T22:31:00.349Z,99788.41
2019-06-07T22:33:33.364Z,99787.22
2019-06-07T22:36:11.065Z,99786.03
2019-06-07T22:38:45.020Z,99781.78
2019-06-07T22:41:18.930Z,99782.41
2019-06-07T22:43:52.815Z,99774.41
2019-06-07T22:46:36.985Z,99775.15
2019-06-07T22:49:02.602Z,99780.00
2019-06-07T22:51:35.791Z,99771.73
2019-06-07T22:54:09.701Z,99773.78
2019-06-07T22:56:50.937Z,99777.07
2019-06-07T22:59:24.755Z,99770.40
2019-06-07T23:01:58.675Z,99763.58
2019-06-07T23:04:32.789Z,99766.25
2019-06-07T23:07:06.665Z,99777.66
2019-06-07T23:09:40.461Z,99776.92
2019-06-07T23:12:15.298Z,99776.17
2019-06-07T23:14:49.173Z,99770.09
2019-06-07T23:17:23.025Z,99767.06
2019-06-07T23:19:56.935Z,99766.47
2019-06-07T23:22:30.781Z,99765.13
2019-06-07T23:25:06.816Z,99756.91
2019-06-07T23:27:40.773Z,99755.47
2019-06-07T23:30:14.980Z,99760.69
2019-06-07T23:32:49.083Z,99759.73
2019-06-07T23:35:23.000Z,99749.98
2019-06-07T23:37:56.925Z,99754.46
2019-06-07T23:40:30.779Z,99747.31
2019-06-07T23:43:04.541Z,99750.83
2019-06-07T23:45:38.383Z,99761.72
2019-06-07T23:48:13.614Z,99766.94
2019-06-07T23:50:47.653Z,99760.13
2019-06-07T23:53:22.159Z,99758.16
2019-06-07T23:55:56.333Z,99757.56
2019-06-07T23:58:30.282Z,99754.05
